Joanna, South Carolina
Current Conditions -  °F | °C
As of 11:55 PM on Saturday 22 Nov 2014 (Local Time) from KLUX Reporting Station
Overcast Overcast  
Wind Chill: 40°   Ceiling: 4600
Heat Index: 43°   Visibility: 10mi
Dew Point: 23°   Wind: 5mph
Humidity: 46%   Direction: 20°NNE
Pressure: 30.28"   Gusts: NA
Location:  34.42°N, 81.81°W
Report Text: KLUX 230455Z AUTO 02004KT 10SM OVC046 06/M05 A3028 RMK AO2
Loading
Personal Weather Stations






























Interactive Weather Map New forecast layout! Learn more

10-Day Weather Forecast

Advertisements
Track Severe Weather on mobile